createdAt,value
2018-12-14T00:00:54.139Z,-0.20
2018-12-14T00:03:22.720Z,-0.20
2018-12-14T00:05:51.320Z,-0.20
2018-12-14T00:08:19.929Z,-0.20
2018-12-14T00:10:48.518Z,-0.20
2018-12-14T00:13:18.081Z,-0.20
2018-12-14T00:15:46.706Z,-0.10
2018-12-14T00:18:15.300Z,-0.10
2018-12-14T00:20:43.910Z,-0.10
2018-12-14T00:23:12.488Z,-0.10
2018-12-14T00:25:41.083Z,-0.20
2018-12-14T00:28:09.628Z,-0.20
2018-12-14T00:30:38.317Z,-0.20
2018-12-14T00:33:06.896Z,-0.20
2018-12-14T00:35:35.483Z,-0.20
2018-12-14T00:38:04.048Z,-0.20
2018-12-14T00:40:32.594Z,-0.20
2018-12-14T00:43:01.154Z,-0.20
2018-12-14T00:45:29.714Z,-0.20
2018-12-14T00:47:58.290Z,-0.20
2018-12-14T00:50:26.850Z,-0.20
2018-12-14T00:52:55.399Z,-0.20
2018-12-14T00:55:23.979Z,-0.20
2018-12-14T00:57:52.514Z,-0.20
2018-12-14T01:00:21.096Z,-0.20
2018-12-14T01:02:49.819Z,-0.20
2018-12-14T01:05:18.374Z,-0.20
2018-12-14T01:07:46.962Z,-0.20
2018-12-14T01:10:15.531Z,-0.20
2018-12-14T01:12:44.164Z,-0.20
2018-12-14T01:15:13.031Z,-0.20
2018-12-14T01:17:41.619Z,-0.20
2018-12-14T01:20:10.512Z,0.00
2018-12-14T01:22:39.109Z,-0.10
2018-12-14T01:25:07.815Z,-0.10
2018-12-14T01:27:36.362Z,-0.20
2018-12-14T01:30:05.726Z,-0.10
2018-12-14T01:32:34.286Z,-0.10
2018-12-14T01:35:02.854Z,-0.10
2018-12-14T01:37:31.411Z,-0.10
2018-12-14T01:39:59.999Z,-0.10
2018-12-14T01:42:28.555Z,-0.10
2018-12-14T01:44:59.275Z,-0.10
2018-12-14T01:47:27.901Z,0.00
2018-12-14T01:49:56.476Z,0.00
2018-12-14T01:52:25.240Z,0.00
2018-12-14T01:54:53.939Z,-0.10
2018-12-14T01:57:22.722Z,-0.10
2018-12-14T01:59:51.300Z,-0.10
2018-12-14T02:02:19.872Z,-0.10
2018-12-14T02:04:48.476Z,-0.10
2018-12-14T02:07:17.076Z,-0.10
2018-12-14T02:09:45.667Z,-0.10
2018-12-14T02:12:14.328Z,-0.10
2018-12-14T02:14:42.916Z,0.00
2018-12-14T02:17:11.502Z,-0.10
2018-12-14T02:19:40.132Z,-0.10
2018-12-14T02:22:08.729Z,0.00
2018-12-14T02:24:37.339Z,0.00
2018-12-14T02:27:05.939Z,-0.10
2018-12-14T02:29:34.518Z,0.00
2018-12-14T02:32:03.075Z,0.00
2018-12-14T02:34:31.783Z,-0.10
2018-12-14T02:37:00.368Z,0.00
2018-12-14T02:39:28.915Z,0.00
2018-12-14T02:41:57.496Z,0.00
2018-12-14T02:44:26.047Z,-0.10
2018-12-14T02:46:54.603Z,0.00
2018-12-14T02:49:23.177Z,0.00
2018-12-14T02:51:51.763Z,0.10
2018-12-14T02:54:20.409Z,0.10
2018-12-14T02:56:49.071Z,0.00
2018-12-14T02:59:17.730Z,0.00
2018-12-14T03:01:46.449Z,0.00
2018-12-14T03:04:15.005Z,0.00
2018-12-14T03:06:43.589Z,0.00
2018-12-14T03:09:12.187Z,0.00
2018-12-14T03:11:40.776Z,0.00
2018-12-14T03:14:09.499Z,-0.10
2018-12-14T03:16:38.043Z,-0.10
2018-12-14T03:19:06.604Z,-0.20
2018-12-14T03:21:35.211Z,-0.20
2018-12-14T03:24:03.847Z,-0.20
2018-12-14T03:26:32.408Z,-0.20
2018-12-14T03:29:00.988Z,-0.20
2018-12-14T03:31:29.585Z,-0.10
2018-12-14T03:33:58.168Z,-0.20
2018-12-14T03:36:26.718Z,-0.20
2018-12-14T03:38:55.283Z,-0.20
2018-12-14T03:41:23.847Z,-0.20
2018-12-14T03:43:52.439Z,-0.20
2018-12-14T03:46:21.085Z,-0.10
2018-12-14T03:48:49.665Z,-0.20
2018-12-14T03:51:20.251Z,-0.20
2018-12-14T03:53:48.826Z,-0.20
2018-12-14T03:56:17.445Z,-0.20
2018-12-14T03:58:46.000Z,-0.20
2018-12-14T04:01:14.705Z,-0.30
2018-12-14T04:03:43.267Z,-0.40
2018-12-14T04:06:11.864Z,-0.40
2018-12-14T04:08:40.432Z,-0.40
2018-12-14T04:11:09.015Z,-0.30
2018-12-14T04:13:37.576Z,-0.40
2018-12-14T04:16:06.175Z,-0.30
2018-12-14T04:18:34.745Z,-0.30
2018-12-14T04:21:03.416Z,-0.30
2018-12-14T04:23:32.035Z,-0.20
2018-12-14T04:26:00.626Z,-0.30
2018-12-14T04:28:29.195Z,-0.30
2018-12-14T04:30:57.895Z,-0.30
2018-12-14T04:33:26.467Z,-0.30
2018-12-14T04:35:55.266Z,-0.40
2018-12-14T04:38:24.021Z,-0.40
2018-12-14T04:40:52.600Z,-0.40
2018-12-14T04:43:21.149Z,-0.30
2018-12-14T04:45:49.714Z,-0.30
2018-12-14T04:48:18.300Z,-0.40
2018-12-14T04:50:46.902Z,-0.30
2018-12-14T04:53:15.491Z,-0.30
2018-12-14T04:55:44.090Z,-0.30
2018-12-14T04:58:12.670Z,-0.40
2018-12-14T05:00:41.273Z,-0.30
2018-12-14T05:03:09.826Z,-0.30
2018-12-14T05:05:38.362Z,-0.30
2018-12-14T05:08:06.931Z,-0.30
2018-12-14T05:10:35.486Z,-0.30
2018-12-14T05:13:04.090Z,-0.30
2018-12-14T05:15:32.680Z,-0.30
2018-12-14T05:18:01.267Z,-0.20
2018-12-14T05:20:29.855Z,-0.20
2018-12-14T05:22:58.494Z,-0.20
2018-12-14T05:25:27.086Z,-0.30
2018-12-14T05:27:55.752Z,-0.30
2018-12-14T05:30:26.409Z,-0.30
2018-12-14T05:32:54.990Z,-0.20
2018-12-14T05:35:23.564Z,-0.20
2018-12-14T05:37:52.122Z,-0.20
2018-12-14T05:40:20.691Z,-0.20
2018-12-14T05:42:49.251Z,-0.20
2018-12-14T05:45:17.810Z,-0.20
2018-12-14T05:47:46.379Z,-0.20
2018-12-14T05:50:14.995Z,-0.20
2018-12-14T05:52:43.562Z,-0.20
2018-12-14T05:55:12.121Z,-0.10
2018-12-14T05:57:40.675Z,-0.10
2018-12-14T06:00:11.417Z,-0.10
2018-12-14T06:02:39.977Z,-0.20
2018-12-14T06:05:08.780Z,-0.20
2018-12-14T06:07:37.375Z,-0.20
2018-12-14T06:10:07.134Z,-0.20
2018-12-14T06:12:35.840Z,-0.30
2018-12-14T06:15:04.943Z,-0.20
2018-12-14T06:17:33.582Z,-0.20
2018-12-14T06:20:02.295Z,-0.20
2018-12-14T06:22:30.885Z,-0.20
2018-12-14T06:24:59.466Z,-0.30
2018-12-14T06:27:28.050Z,-0.30
2018-12-14T06:29:56.652Z,-0.30
2018-12-14T06:32:25.206Z,-0.40
2018-12-14T06:34:53.779Z,-0.40
2018-12-14T06:37:22.591Z,-0.40
2018-12-14T06:39:51.190Z,-0.30
2018-12-14T06:42:20.214Z,-0.30
2018-12-14T06:44:48.794Z,-0.20
2018-12-14T06:47:17.368Z,-0.20
2018-12-14T06:49:45.982Z,-0.20
2018-12-14T06:52:14.602Z,-0.20
2018-12-14T06:54:43.140Z,-0.30
2018-12-14T06:57:11.724Z,-0.30
2018-12-14T06:59:40.311Z,-0.30
2018-12-14T07:02:08.876Z,-0.20
2018-12-14T07:04:37.431Z,-0.20
2018-12-14T07:07:06.022Z,-0.20
2018-12-14T07:09:34.966Z,-0.20
2018-12-14T07:12:03.545Z,-0.20
2018-12-14T07:14:32.112Z,-0.20
2018-12-14T07:17:00.672Z,-0.10
2018-12-14T07:19:29.208Z,-0.20
2018-12-14T07:21:57.780Z,-0.20
2018-12-14T07:24:26.374Z,-0.20
2018-12-14T07:26:55.195Z,-0.20
2018-12-14T07:29:23.852Z,-0.20
2018-12-14T07:31:52.391Z,-0.30
2018-12-14T07:34:20.958Z,-0.30
2018-12-14T07:36:49.497Z,-0.30
2018-12-14T07:39:18.074Z,-0.30
2018-12-14T07:41:46.622Z,-0.30
2018-12-14T07:44:15.244Z,-0.40
2018-12-14T07:46:43.841Z,-0.40
2018-12-14T07:49:12.409Z,-0.40
2018-12-14T07:51:40.982Z,-0.40
2018-12-14T07:54:09.540Z,-0.40
2018-12-14T07:56:38.067Z,-0.30
2018-12-14T07:59:07.603Z,-0.30
2018-12-14T08:01:36.208Z,-0.30
2018-12-14T08:04:04.863Z,-0.30
2018-12-14T08:06:33.438Z,-0.20
2018-12-14T08:09:02.001Z,-0.20
2018-12-14T08:11:30.536Z,-0.20
2018-12-14T08:13:59.096Z,-0.10
2018-12-14T08:16:27.630Z,-0.10
2018-12-14T08:18:56.177Z,0.00
2018-12-14T08:21:24.755Z,0.00
2018-12-14T08:23:53.351Z,0.10
2018-12-14T08:26:21.887Z,0.10
2018-12-14T08:28:50.404Z,0.10
2018-12-14T08:31:19.024Z,0.00
2018-12-14T08:33:47.647Z,0.10
2018-12-14T08:36:16.243Z,0.10
2018-12-14T08:38:44.822Z,0.10
2018-12-14T08:41:13.481Z,0.10
2018-12-14T08:43:42.040Z,0.20
2018-12-14T08:46:10.569Z,0.20
2018-12-14T08:48:39.078Z,0.20
2018-12-14T08:51:07.629Z,0.20
2018-12-14T08:53:36.300Z,0.30
2018-12-14T08:56:04.983Z,0.20
2018-12-14T08:58:33.537Z,0.30
2018-12-14T09:01:02.037Z,0.40
2018-12-14T09:03:30.581Z,0.30
2018-12-14T09:05:59.126Z,0.40
2018-12-14T09:08:27.663Z,0.50
2018-12-14T09:10:56.211Z,0.40
2018-12-14T09:13:24.754Z,0.40
2018-12-14T09:15:53.322Z,0.50
2018-12-14T09:18:28.140Z,0.50
2018-12-14T09:21:01.125Z,0.50
2018-12-14T09:23:27.502Z,0.50
2018-12-14T09:25:56.092Z,0.40
2018-12-14T09:28:24.621Z,0.50
2018-12-14T09:30:53.118Z,0.50
2018-12-14T09:33:21.649Z,0.60
2018-12-14T09:35:50.205Z,0.60
2018-12-14T09:38:18.754Z,0.70
2018-12-14T09:40:47.284Z,0.60
2018-12-14T09:43:15.840Z,0.60
2018-12-14T09:45:44.380Z,0.70
2018-12-14T09:48:12.947Z,0.60
2018-12-14T09:50:41.478Z,0.60
2018-12-14T09:53:12.062Z,0.60
2018-12-14T09:55:40.589Z,0.60
2018-12-14T09:58:09.360Z,0.60
2018-12-14T10:00:37.890Z,0.50
2018-12-14T10:03:06.433Z,0.60
2018-12-14T10:05:35.049Z,0.70
2018-12-14T10:08:03.636Z,0.80
2018-12-14T10:10:32.173Z,0.80
2018-12-14T10:13:00.721Z,0.70
2018-12-14T10:15:29.275Z,0.60
2018-12-14T10:17:57.838Z,0.60
2018-12-14T10:20:26.441Z,0.60
2018-12-14T10:22:54.988Z,0.70
2018-12-14T10:25:23.560Z,0.70
2018-12-14T10:27:52.083Z,0.80
2018-12-14T10:30:20.637Z,0.90
2018-12-14T10:32:49.179Z,0.90
2018-12-14T10:35:17.772Z,1.00
2018-12-14T10:37:46.335Z,1.10
2018-12-14T10:40:14.899Z,1.10
2018-12-14T10:42:43.572Z,1.10
2018-12-14T10:45:12.242Z,1.00
2018-12-14T10:47:40.845Z,1.00
2018-12-14T10:50:09.471Z,1.10
2018-12-14T10:52:38.020Z,1.10
2018-12-14T10:55:07.070Z,1.00
2018-12-14T10:57:35.848Z,1.10
2018-12-14T11:00:07.434Z,1.10
2018-12-14T11:02:35.975Z,1.20
2018-12-14T11:05:04.791Z,1.30
2018-12-14T11:07:33.343Z,1.30
2018-12-14T11:10:02.035Z,1.40
2018-12-14T11:12:30.573Z,1.40
2018-12-14T11:14:59.095Z,1.40
2018-12-14T11:17:27.665Z,1.40
2018-12-14T11:19:56.211Z,1.40
2018-12-14T11:22:24.840Z,1.30
2018-12-14T11:24:53.482Z,1.30
2018-12-14T11:27:22.012Z,1.20
2018-12-14T11:29:50.593Z,1.10
2018-12-14T11:32:19.205Z,1.10
2018-12-14T11:34:47.722Z,1.20
2018-12-14T11:37:16.333Z,1.20
2018-12-14T11:39:44.874Z,1.10
2018-12-14T11:42:13.419Z,1.10
2018-12-14T11:44:42.204Z,1.10
2018-12-14T11:47:10.785Z,1.10
2018-12-14T11:49:39.326Z,1.00
2018-12-14T11:52:09.069Z,1.00
2018-12-14T11:54:37.866Z,1.00
2018-12-14T11:57:06.404Z,1.10
2018-12-14T11:59:34.954Z,1.00
2018-12-14T12:02:03.506Z,1.00
2018-12-14T12:04:32.048Z,1.00
2018-12-14T12:07:00.598Z,0.90
2018-12-14T12:09:29.144Z,1.00
2018-12-14T12:11:57.798Z,1.00
2018-12-14T12:14:27.116Z,1.00
2018-12-14T12:16:55.854Z,1.10
2018-12-14T12:19:24.417Z,1.00
2018-12-14T12:21:53.033Z,1.10
2018-12-14T12:24:21.702Z,1.10
2018-12-14T12:26:50.272Z,1.00
2018-12-14T12:29:18.826Z,1.00
2018-12-14T12:31:47.393Z,0.90
2018-12-14T12:34:15.936Z,0.80
2018-12-14T12:36:44.430Z,0.80
2018-12-14T12:39:12.971Z,0.80
2018-12-14T12:41:41.519Z,0.80
2018-12-14T12:44:10.050Z,0.80
2018-12-14T12:46:38.585Z,0.80
2018-12-14T12:49:07.138Z,0.70
2018-12-14T12:51:35.840Z,0.70
2018-12-14T12:54:04.363Z,0.70
2018-12-14T12:56:33.153Z,0.70
2018-12-14T12:59:01.710Z,0.70
2018-12-14T13:01:30.236Z,0.70
2018-12-14T13:03:58.848Z,0.80
2018-12-14T13:06:27.485Z,0.80
2018-12-14T13:08:56.019Z,0.90
2018-12-14T13:11:24.532Z,0.90
2018-12-14T13:13:53.075Z,0.90
2018-12-14T13:16:21.619Z,0.90
2018-12-14T13:18:50.142Z,0.90
2018-12-14T13:21:18.670Z,0.90
2018-12-14T13:23:47.204Z,0.90
2018-12-14T13:26:15.746Z,0.80
2018-12-14T13:28:44.267Z,0.80
2018-12-14T13:31:12.786Z,0.70
2018-12-14T13:33:41.320Z,0.60
2018-12-14T13:36:09.928Z,0.60
2018-12-14T13:38:38.467Z,0.60
2018-12-14T13:41:07.014Z,0.50
2018-12-14T13:43:35.587Z,0.50
2018-12-14T13:46:04.272Z,0.50
2018-12-14T13:48:32.837Z,0.60
2018-12-14T13:51:01.357Z,0.60
2018-12-14T13:53:29.905Z,0.60
2018-12-14T13:55:58.426Z,0.60
2018-12-14T13:58:26.934Z,0.50
2018-12-14T14:00:55.484Z,0.40
2018-12-14T14:03:24.096Z,0.40
2018-12-14T14:05:52.609Z,0.30
2018-12-14T14:08:21.122Z,0.20
2018-12-14T14:10:49.840Z,0.20
2018-12-14T14:13:18.403Z,0.30
2018-12-14T14:15:50.646Z,0.20
2018-12-14T14:18:17.496Z,0.30
2018-12-14T14:20:46.042Z,0.30
2018-12-14T14:23:14.573Z,0.30
2018-12-14T14:25:43.808Z,0.20
2018-12-14T14:28:12.427Z,0.10
2018-12-14T14:30:40.974Z,0.10
2018-12-14T14:33:09.537Z,0.00
2018-12-14T14:35:38.069Z,0.00
2018-12-14T14:38:06.583Z,0.00
2018-12-14T14:40:35.111Z,0.00
2018-12-14T14:43:03.653Z,0.00
2018-12-14T14:45:32.212Z,-0.10
2018-12-14T14:48:00.732Z,0.00
2018-12-14T14:50:29.266Z,-0.10
2018-12-14T14:52:57.756Z,-0.10
2018-12-14T14:55:26.282Z,-0.10
2018-12-14T14:57:54.943Z,-0.20
2018-12-14T15:00:23.490Z,-0.20
2018-12-14T15:02:52.164Z,-0.20
2018-12-14T15:05:20.697Z,-0.20
2018-12-14T15:07:49.211Z,-0.20
2018-12-14T15:10:17.737Z,-0.30
2018-12-14T15:12:46.335Z,-0.30
2018-12-14T15:15:14.842Z,-0.30
2018-12-14T15:17:43.358Z,-0.30
2018-12-14T15:20:12.048Z,-0.30
2018-12-14T15:22:40.618Z,-0.30
2018-12-14T15:25:09.306Z,-0.30
2018-12-14T15:27:37.839Z,-0.30
2018-12-14T15:30:06.542Z,-0.30
2018-12-14T15:32:35.088Z,-0.40
2018-12-14T15:35:03.774Z,-0.40
2018-12-14T15:37:32.853Z,-0.30
2018-12-14T15:40:01.380Z,-0.40
2018-12-14T15:42:29.922Z,-0.40
2018-12-14T15:44:58.485Z,-0.40
2018-12-14T15:47:27.027Z,-0.40
2018-12-14T15:49:55.582Z,-0.40
2018-12-14T15:52:24.143Z,-0.40
2018-12-14T15:54:52.696Z,-0.30
2018-12-14T15:57:21.772Z,-0.30
2018-12-14T15:59:50.376Z,-0.40
2018-12-14T16:02:18.912Z,-0.40
2018-12-14T16:04:47.619Z,-0.40
2018-12-14T16:07:16.171Z,-0.30
2018-12-14T16:09:44.686Z,-0.30
2018-12-14T16:12:13.258Z,-0.40
2018-12-14T16:14:43.578Z,-0.40
2018-12-14T16:17:12.210Z,-0.40
2018-12-14T16:19:40.867Z,-0.40
2018-12-14T16:22:09.428Z,-0.30
2018-12-14T16:24:41.786Z,-0.30
2018-12-14T16:27:10.388Z,-0.40
2018-12-14T16:29:39.031Z,-0.40
2018-12-14T16:32:07.592Z,-0.40
2018-12-14T16:34:36.146Z,-0.40
2018-12-14T16:37:04.713Z,-0.40
2018-12-14T16:39:33.315Z,-0.40
2018-12-14T16:42:01.972Z,-0.40
2018-12-14T16:44:30.566Z,-0.40
2018-12-14T16:46:59.442Z,-0.40
2018-12-14T16:49:29.148Z,-0.40
2018-12-14T16:51:57.684Z,-0.40
2018-12-14T16:54:26.354Z,-0.40
2018-12-14T16:56:54.941Z,-0.40
2018-12-14T16:59:23.469Z,-0.40
2018-12-14T17:01:52.000Z,-0.40
2018-12-14T17:04:20.504Z,-0.50
2018-12-14T17:06:49.099Z,-0.40
2018-12-14T17:09:17.634Z,-0.40
2018-12-14T17:11:46.328Z,-0.40
2018-12-14T17:14:14.873Z,-0.50
2018-12-14T17:16:43.405Z,-0.50
2018-12-14T17:19:11.977Z,-0.40
2018-12-14T17:21:40.542Z,-0.40
2018-12-14T17:24:09.099Z,-0.50
2018-12-14T17:26:37.670Z,-0.50
2018-12-14T17:29:06.244Z,-0.50
2018-12-14T17:31:34.787Z,-0.40
2018-12-14T17:34:03.461Z,-0.40
2018-12-14T17:36:32.017Z,-0.50
2018-12-14T17:39:00.547Z,-0.50
2018-12-14T17:41:29.076Z,-0.40
2018-12-14T17:43:57.621Z,-0.40
2018-12-14T17:46:26.136Z,-0.50
2018-12-14T17:48:54.628Z,-0.40
2018-12-14T17:51:23.216Z,-0.40
2018-12-14T17:53:51.701Z,-0.40
2018-12-14T17:56:20.225Z,-0.40
2018-12-14T17:58:48.746Z,-0.40
2018-12-14T18:01:17.260Z,-0.40
2018-12-14T18:03:45.776Z,-0.40
2018-12-14T18:06:14.261Z,-0.50
2018-12-14T18:08:42.767Z,-0.50
2018-12-14T18:11:11.308Z,-0.50
2018-12-14T18:13:39.843Z,-0.50
2018-12-14T18:16:08.549Z,-0.50
2018-12-14T18:18:37.161Z,-0.50
2018-12-14T18:21:05.695Z,-0.50
2018-12-14T18:23:34.227Z,-0.60
2018-12-14T18:26:02.816Z,-0.60
2018-12-14T18:28:31.359Z,-0.60
2018-12-14T18:30:59.900Z,-0.60
2018-12-14T18:33:29.586Z,-0.70
2018-12-14T18:35:58.286Z,-0.70
2018-12-14T18:38:26.920Z,-0.70
2018-12-14T18:40:55.512Z,-0.60
2018-12-14T18:43:24.124Z,-0.60
2018-12-14T18:45:53.404Z,-0.60
2018-12-14T18:48:22.363Z,-0.70
2018-12-14T18:50:51.020Z,-0.60
2018-12-14T18:53:19.563Z,-0.60
2018-12-14T18:55:48.120Z,-0.70
2018-12-14T18:58:16.731Z,-0.70
2018-12-14T19:00:45.251Z,-0.70
2018-12-14T19:03:13.790Z,-0.70
2018-12-14T19:05:42.310Z,-0.80
2018-12-14T19:08:10.846Z,-0.80
2018-12-14T19:10:39.389Z,-0.80
2018-12-14T19:13:07.917Z,-0.80
2018-12-14T19:15:36.445Z,-0.80
2018-12-14T19:18:05.937Z,-0.90
2018-12-14T19:20:34.497Z,-0.90
2018-12-14T19:23:03.045Z,-0.90
2018-12-14T19:25:31.596Z,-0.90
2018-12-14T19:28:00.176Z,-0.90
2018-12-14T19:30:28.709Z,-0.90
2018-12-14T19:32:57.227Z,-0.90
2018-12-14T19:35:26.037Z,-0.90
2018-12-14T19:37:54.573Z,-1.00
2018-12-14T19:40:23.109Z,-1.00
2018-12-14T19:42:51.647Z,-1.00
2018-12-14T19:45:20.247Z,-1.00
2018-12-14T19:47:48.797Z,-1.00
2018-12-14T19:50:17.331Z,-1.00
2018-12-14T19:52:46.032Z,-0.90
2018-12-14T19:55:14.569Z,-0.90
2018-12-14T19:57:43.116Z,-0.90
2018-12-14T20:00:12.637Z,-1.00
2018-12-14T20:02:41.186Z,-1.00
2018-12-14T20:05:09.769Z,-1.00
2018-12-14T20:07:38.352Z,-1.00
2018-12-14T20:10:07.801Z,-1.00
2018-12-14T20:12:36.307Z,-1.00
2018-12-14T20:15:06.207Z,-1.10
2018-12-14T20:17:34.749Z,-1.00
2018-12-14T20:20:03.540Z,-1.10
2018-12-14T20:22:32.126Z,-1.10
2018-12-14T20:25:00.722Z,-1.10
2018-12-14T20:27:29.277Z,-1.20
2018-12-14T20:29:57.820Z,-1.20
2018-12-14T20:32:26.420Z,-1.20
2018-12-14T20:34:54.982Z,-1.20
2018-12-14T20:37:23.490Z,-1.20
2018-12-14T20:41:59.709Z,-1.20
2018-12-14T20:44:28.235Z,-1.10
2018-12-14T20:46:56.798Z,-1.10
2018-12-14T20:49:25.369Z,-1.20
2018-12-14T20:51:53.907Z,-1.20
2018-12-14T20:54:22.614Z,-1.20
2018-12-14T20:56:51.753Z,-1.20
2018-12-14T20:59:20.496Z,-1.10
2018-12-14T21:01:49.030Z,-1.20
2018-12-14T21:04:17.561Z,-1.20
2018-12-14T21:06:46.105Z,-1.20
2018-12-14T21:09:14.641Z,-1.20
2018-12-14T21:11:43.170Z,-1.10
2018-12-14T21:14:11.729Z,-1.20
2018-12-14T21:16:40.241Z,-1.10
2018-12-14T21:19:08.820Z,-1.10
2018-12-14T21:21:37.574Z,-1.10
2018-12-14T21:24:06.097Z,-1.20
2018-12-14T21:26:34.642Z,-1.20
2018-12-14T21:29:03.165Z,-1.20
2018-12-14T21:31:33.173Z,-1.20
2018-12-14T21:34:03.922Z,-1.20
2018-12-14T21:36:32.441Z,-1.20
2018-12-14T21:39:00.972Z,-1.20
2018-12-14T21:41:29.488Z,-1.20
2018-12-14T21:43:58.000Z,-1.20
2018-12-14T21:46:32.400Z,-1.20
2018-12-14T21:48:57.100Z,-1.20
2018-12-14T21:51:25.614Z,-1.20
2018-12-14T21:53:54.131Z,-1.20
2018-12-14T21:56:22.654Z,-1.20
2018-12-14T21:58:51.159Z,-1.20
2018-12-14T22:01:19.653Z,-1.20
2018-12-14T22:03:48.170Z,-1.20
2018-12-14T22:06:16.777Z,-1.20
2018-12-14T22:08:45.294Z,-1.20
2018-12-14T22:11:13.808Z,-1.20
2018-12-14T22:13:42.356Z,-1.20
2018-12-14T22:16:10.868Z,-1.20
2018-12-14T22:18:39.448Z,-1.20
2018-12-14T22:21:07.969Z,-1.20
2018-12-14T22:23:36.491Z,-1.20
2018-12-14T22:26:05.089Z,-1.20
2018-12-14T22:28:33.612Z,-1.20
2018-12-14T22:31:02.165Z,-1.30
2018-12-14T22:33:31.267Z,-1.30
2018-12-14T22:35:59.814Z,-1.30
2018-12-14T22:38:28.336Z,-1.40
2018-12-14T22:40:56.853Z,-1.40
2018-12-14T22:43:25.376Z,-1.40
2018-12-14T22:45:53.935Z,-1.40
2018-12-14T22:48:22.484Z,-1.40
2018-12-14T22:50:51.016Z,-1.40
2018-12-14T22:53:19.520Z,-1.50
2018-12-14T22:55:48.057Z,-1.60
2018-12-14T22:58:16.586Z,-1.50
2018-12-14T23:00:50.555Z,-1.50
2018-12-14T23:03:19.443Z,-1.50
2018-12-14T23:05:48.271Z,-1.50
2018-12-14T23:08:16.812Z,-1.50
2018-12-14T23:10:45.336Z,-1.50
2018-12-14T23:13:13.894Z,-1.50
2018-12-14T23:15:42.402Z,-1.40
2018-12-14T23:18:10.919Z,-1.40
2018-12-14T23:20:39.436Z,-1.40
2018-12-14T23:23:07.975Z,-1.40
2018-12-14T23:25:36.590Z,-1.40
2018-12-14T23:28:05.156Z,-1.40
2018-12-14T23:30:33.689Z,-1.40
2018-12-14T23:33:02.204Z,-1.50
2018-12-14T23:35:30.731Z,-1.50
2018-12-14T23:37:59.242Z,-1.50
2018-12-14T23:40:27.750Z,-1.50
2018-12-14T23:42:56.669Z,-1.50
2018-12-14T23:45:25.207Z,-1.50
2018-12-14T23:47:53.711Z,-1.50
2018-12-14T23:50:22.232Z,-1.50
2018-12-14T23:52:50.718Z,-1.50
2018-12-14T23:55:19.212Z,-1.50
2018-12-14T23:57:47.732Z,-1.50
